sensor_id;sensor_type;location;lat;lon;timestamp;temperature;humidity
4739;DHT22;2383;48.632;10.156;2023-06-22T00:03:33;19.30;99.90
4739;DHT22;2383;48.632;10.156;2023-06-22T00:07:35;19.10;99.90
4739;DHT22;2383;48.632;10.156;2023-06-22T00:11:38;19.20;99.90
4739;DHT22;2383;48.632;10.156;2023-06-22T00:15:41;19.30;99.90
4739;DHT22;2383;48.632;10.156;2023-06-22T00:19:43;18.80;99.90
4739;DHT22;2383;48.632;10.156;2023-06-22T00:23:48;18.90;99.90
4739;DHT22;2383;48.632;10.156;2023-06-22T00:27:50;19.10;99.90
4739;DHT22;2383;48.632;10.156;2023-06-22T00:31:52;19.00;99.90
4739;DHT22;2383;48.632;10.156;2023-06-22T00:35:56;18.30;99.90
4739;DHT22;2383;48.632;10.156;2023-06-22T00:39:58;18.70;99.90
4739;DHT22;2383;48.632;10.156;2023-06-22T00:44:00;18.80;99.90
4739;DHT22;2383;48.632;10.156;2023-06-22T00:48:06;18.80;99.90
4739;DHT22;2383;48.632;10.156;2023-06-22T00:52:10;18.20;99.90
4739;DHT22;2383;48.632;10.156;2023-06-22T00:56:16;18.40;99.90
4739;DHT22;2383;48.632;10.156;2023-06-22T01:00:24;18.70;99.90
4739;DHT22;2383;48.632;10.156;2023-06-22T01:04:35;18.90;99.90
4739;DHT22;2383;48.632;10.156;2023-06-22T01:08:42;19.00;99.90
4739;DHT22;2383;48.632;10.156;2023-06-22T01:12:51;18.60;99.90
4739;DHT22;2383;48.632;10.156;2023-06-22T01:16:54;18.70;99.90
4739;DHT22;2383;48.632;10.156;2023-06-22T01:20:58;18.50;99.90
4739;DHT22;2383;48.632;10.156;2023-06-22T01:25:19;17.60;99.90
4739;DHT22;2383;48.632;10.156;2023-06-22T01:29:24;18.20;99.90
4739;DHT22;2383;48.632;10.156;2023-06-22T01:33:33;18.20;99.90
4739;DHT22;2383;48.632;10.156;2023-06-22T01:37:37;18.50;99.90
4739;DHT22;2383;48.632;10.156;2023-06-22T01:41:41;18.70;99.90
4739;DHT22;2383;48.632;10.156;2023-06-22T01:45:43;18.70;99.90
4739;DHT22;2383;48.632;10.156;2023-06-22T01:49:47;18.70;99.90
4739;DHT22;2383;48.632;10.156;2023-06-22T01:53:49;18.70;99.90
4739;DHT22;2383;48.632;10.156;2023-06-22T01:57:53;18.70;99.90
4739;DHT22;2383;48.632;10.156;2023-06-22T02:02:09;18.50;99.90
4739;DHT22;2383;48.632;10.156;2023-06-22T02:06:18;18.60;99.90
4739;DHT22;2383;48.632;10.156;2023-06-22T02:10:24;18.40;99.90
4739;DHT22;2383;48.632;10.156;2023-06-22T02:14:28;18.10;99.90
4739;DHT22;2383;48.632;10.156;2023-06-22T02:18:30;18.40;99.90
4739;DHT22;2383;48.632;10.156;2023-06-22T02:22:32;18.60;99.90
4739;DHT22;2383;48.632;10.156;2023-06-22T02:26:34;18.60;99.90
4739;DHT22;2383;48.632;10.156;2023-06-22T02:30:38;18.40;99.90
4739;DHT22;2383;48.632;10.156;2023-06-22T02:34:41;18.40;99.90
4739;DHT22;2383;48.632;10.156;2023-06-22T02:38:44;18.40;99.90
4739;DHT22;2383;48.632;10.156;2023-06-22T02:42:49;17.60;99.90
4739;DHT22;2383;48.632;10.156;2023-06-22T02:46:51;17.50;99.90
4739;DHT22;2383;48.632;10.156;2023-06-22T02:50:53;17.00;99.90
4739;DHT22;2383;48.632;10.156;2023-06-22T02:54:56;17.30;99.90
4739;DHT22;2383;48.632;10.156;2023-06-22T02:58:58;16.90;99.90
4739;DHT22;2383;48.632;10.156;2023-06-22T03:03:08;16.50;99.90
4739;DHT22;2383;48.632;10.156;2023-06-22T03:07:11;16.50;99.90
4739;DHT22;2383;48.632;10.156;2023-06-22T03:11:13;17.30;99.90
4739;DHT22;2383;48.632;10.156;2023-06-22T03:15:15;17.00;99.90
4739;DHT22;2383;48.632;10.156;2023-06-22T03:19:18;17.40;99.90
4739;DHT22;2383;48.632;10.156;2023-06-22T03:23:23;17.60;99.90
4739;DHT22;2383;48.632;10.156;2023-06-22T03:27:25;17.20;99.90
4739;DHT22;2383;48.632;10.156;2023-06-22T03:31:27;17.00;99.90
4739;DHT22;2383;48.632;10.156;2023-06-22T03:35:29;17.00;99.90
4739;DHT22;2383;48.632;10.156;2023-06-22T03:39:32;17.20;99.90
4739;DHT22;2383;48.632;10.156;2023-06-22T03:43:34;17.50;99.90
4739;DHT22;2383;48.632;10.156;2023-06-22T03:47:38;17.70;99.90
4739;DHT22;2383;48.632;10.156;2023-06-22T03:51:40;17.90;99.90
4739;DHT22;2383;48.632;10.156;2023-06-22T03:55:52;17.80;99.90
4739;DHT22;2383;48.632;10.156;2023-06-22T03:59:56;17.50;99.90
4739;DHT22;2383;48.632;10.156;2023-06-22T04:03:58;17.80;99.90
4739;DHT22;2383;48.632;10.156;2023-06-22T04:08:01;18.00;99.90
4739;DHT22;2383;48.632;10.156;2023-06-22T04:12:03;18.10;99.90
4739;DHT22;2383;48.632;10.156;2023-06-22T04:16:05;18.20;99.90
4739;DHT22;2383;48.632;10.156;2023-06-22T04:20:08;18.20;99.90
4739;DHT22;2383;48.632;10.156;2023-06-22T04:24:11;18.20;99.90
4739;DHT22;2383;48.632;10.156;2023-06-22T04:28:13;18.20;99.90
4739;DHT22;2383;48.632;10.156;2023-06-22T04:32:15;18.20;99.90
4739;DHT22;2383;48.632;10.156;2023-06-22T04:36:17;18.20;99.90
4739;DHT22;2383;48.632;10.156;2023-06-22T04:40:22;18.30;99.90
4739;DHT22;2383;48.632;10.156;2023-06-22T04:44:24;18.40;99.90
4739;DHT22;2383;48.632;10.156;2023-06-22T04:48:26;18.40;99.90
4739;DHT22;2383;48.632;10.156;2023-06-22T04:52:34;18.60;99.90
4739;DHT22;2383;48.632;10.156;2023-06-22T04:56:36;18.60;99.90
4739;DHT22;2383;48.632;10.156;2023-06-22T05:00:38;18.70;99.90
4739;DHT22;2383;48.632;10.156;2023-06-22T05:04:40;18.80;99.90
4739;DHT22;2383;48.632;10.156;2023-06-22T05:08:43;18.90;99.90
4739;DHT22;2383;48.632;10.156;2023-06-22T05:12:46;19.00;99.90
4739;DHT22;2383;48.632;10.156;2023-06-22T05:16:48;19.10;99.90
4739;DHT22;2383;48.632;10.156;2023-06-22T05:20:50;19.30;99.90
4739;DHT22;2383;48.632;10.156;2023-06-22T05:24:53;19.40;99.90
4739;DHT22;2383;48.632;10.156;2023-06-22T05:28:58;19.50;99.90
4739;DHT22;2383;48.632;10.156;2023-06-22T05:33:00;19.50;99.90
4739;DHT22;2383;48.632;10.156;2023-06-22T05:37:03;19.60;99.90
4739;DHT22;2383;48.632;10.156;2023-06-22T05:41:05;19.60;99.90
4739;DHT22;2383;48.632;10.156;2023-06-22T05:45:08;19.00;99.90
4739;DHT22;2383;48.632;10.156;2023-06-22T05:49:11;19.50;99.90
4739;DHT22;2383;48.632;10.156;2023-06-22T05:53:13;19.60;99.90
4739;DHT22;2383;48.632;10.156;2023-06-22T05:57:16;19.70;99.90
4739;DHT22;2383;48.632;10.156;2023-06-22T06:01:18;20.10;99.90
4739;DHT22;2383;48.632;10.156;2023-06-22T06:05:20;19.90;99.90
4739;DHT22;2383;48.632;10.156;2023-06-22T06:09:22;20.20;99.90
4739;DHT22;2383;48.632;10.156;2023-06-22T06:13:24;20.40;99.90
4739;DHT22;2383;48.632;10.156;2023-06-22T06:17:26;20.70;99.90
4739;DHT22;2383;48.632;10.156;2023-06-22T06:21:29;20.90;99.90
4739;DHT22;2383;48.632;10.156;2023-06-22T06:25:32;20.90;99.90
4739;DHT22;2383;48.632;10.156;2023-06-22T06:29:34;21.00;99.90
4739;DHT22;2383;48.632;10.156;2023-06-22T06:33:36;20.90;99.90
4739;DHT22;2383;48.632;10.156;2023-06-22T06:37:39;20.70;99.90
4739;DHT22;2383;48.632;10.156;2023-06-22T06:41:42;20.90;99.90
4739;DHT22;2383;48.632;10.156;2023-06-22T06:45:49;21.10;99.90
4739;DHT22;2383;48.632;10.156;2023-06-22T06:49:53;21.30;99.90
4739;DHT22;2383;48.632;10.156;2023-06-22T06:53:55;21.50;99.90
4739;DHT22;2383;48.632;10.156;2023-06-22T06:57:57;21.30;99.90
4739;DHT22;2383;48.632;10.156;2023-06-22T07:01:59;21.40;99.90
4739;DHT22;2383;48.632;10.156;2023-06-22T07:06:02;21.60;99.90
4739;DHT22;2383;48.632;10.156;2023-06-22T07:10:05;21.30;99.90
4739;DHT22;2383;48.632;10.156;2023-06-22T07:14:08;21.50;99.80
4739;DHT22;2383;48.632;10.156;2023-06-22T07:18:09;21.60;99.20
4739;DHT22;2383;48.632;10.156;2023-06-22T07:22:12;21.70;99.60
4739;DHT22;2383;48.632;10.156;2023-06-22T07:26:14;21.90;98.50
4739;DHT22;2383;48.632;10.156;2023-06-22T07:30:17;21.90;98.30
4739;DHT22;2383;48.632;10.156;2023-06-22T07:34:19;22.10;98.80
4739;DHT22;2383;48.632;10.156;2023-06-22T07:38:21;22.00;98.90
4739;DHT22;2383;48.632;10.156;2023-06-22T07:42:27;22.00;98.50
4739;DHT22;2383;48.632;10.156;2023-06-22T07:46:29;22.20;98.40
4739;DHT22;2383;48.632;10.156;2023-06-22T07:50:32;22.20;98.80
4739;DHT22;2383;48.632;10.156;2023-06-22T07:54:34;22.40;98.80
4739;DHT22;2383;48.632;10.156;2023-06-22T07:58:36;22.20;99.30
4739;DHT22;2383;48.632;10.156;2023-06-22T08:02:39;22.30;99.30
4739;DHT22;2383;48.632;10.156;2023-06-22T08:06:42;22.30;99.30
4739;DHT22;2383;48.632;10.156;2023-06-22T08:10:45;22.60;99.00
4739;DHT22;2383;48.632;10.156;2023-06-22T08:14:47;22.80;98.80
4739;DHT22;2383;48.632;10.156;2023-06-22T08:18:49;22.70;99.40
4739;DHT22;2383;48.632;10.156;2023-06-22T08:22:54;22.50;99.80
4739;DHT22;2383;48.632;10.156;2023-06-22T08:26:56;22.70;99.30
4739;DHT22;2383;48.632;10.156;2023-06-22T08:30:59;22.40;99.90
4739;DHT22;2383;48.632;10.156;2023-06-22T08:35:03;22.90;99.00
4739;DHT22;2383;48.632;10.156;2023-06-22T08:39:05;23.20;99.30
4739;DHT22;2383;48.632;10.156;2023-06-22T08:43:07;22.40;99.70
4739;DHT22;2383;48.632;10.156;2023-06-22T08:47:09;21.90;99.90
4739;DHT22;2383;48.632;10.156;2023-06-22T08:51:11;21.80;99.90
4739;DHT22;2383;48.632;10.156;2023-06-22T08:55:13;22.80;99.90
4739;DHT22;2383;48.632;10.156;2023-06-22T08:59:16;23.20;99.90
4739;DHT22;2383;48.632;10.156;2023-06-22T09:03:18;23.60;99.30
4739;DHT22;2383;48.632;10.156;2023-06-22T09:07:23;23.80;98.70
4739;DHT22;2383;48.632;10.156;2023-06-22T09:11:26;23.70;98.30
4739;DHT22;2383;48.632;10.156;2023-06-22T09:15:28;23.40;98.90
4739;DHT22;2383;48.632;10.156;2023-06-22T09:19:30;23.70;98.30
4739;DHT22;2383;48.632;10.156;2023-06-22T09:23:32;23.40;98.20
4739;DHT22;2383;48.632;10.156;2023-06-22T09:27:34;23.70;98.10
4739;DHT22;2383;48.632;10.156;2023-06-22T09:31:37;23.90;98.70
4739;DHT22;2383;48.632;10.156;2023-06-22T09:35:38;23.50;98.40
4739;DHT22;2383;48.632;10.156;2023-06-22T09:39:41;24.10;98.00
4739;DHT22;2383;48.632;10.156;2023-06-22T09:43:42;24.30;98.30
4739;DHT22;2383;48.632;10.156;2023-06-22T09:47:44;23.50;98.30
4739;DHT22;2383;48.632;10.156;2023-06-22T09:51:46;24.10;98.50
4739;DHT22;2383;48.632;10.156;2023-06-22T09:55:49;24.00;98.10
4739;DHT22;2383;48.632;10.156;2023-06-22T09:59:51;24.00;97.70
4739;DHT22;2383;48.632;10.156;2023-06-22T10:03:53;24.00;98.00
4739;DHT22;2383;48.632;10.156;2023-06-22T10:07:58;24.40;97.40
4739;DHT22;2383;48.632;10.156;2023-06-22T10:12:00;24.30;97.80
4739;DHT22;2383;48.632;10.156;2023-06-22T10:16:02;24.60;97.10
4739;DHT22;2383;48.632;10.156;2023-06-22T10:20:06;24.80;96.80
4739;DHT22;2383;48.632;10.156;2023-06-22T10:24:13;25.00;96.10
4739;DHT22;2383;48.632;10.156;2023-06-22T10:28:16;24.90;95.20
4739;DHT22;2383;48.632;10.156;2023-06-22T10:32:18;24.60;95.10
4739;DHT22;2383;48.632;10.156;2023-06-22T10:36:21;24.60;95.70
4739;DHT22;2383;48.632;10.156;2023-06-22T10:40:23;24.80;96.80
4739;DHT22;2383;48.632;10.156;2023-06-22T10:44:25;25.00;95.60
4739;DHT22;2383;48.632;10.156;2023-06-22T10:48:27;25.30;96.10
4739;DHT22;2383;48.632;10.156;2023-06-22T10:52:29;25.10;95.50
4739;DHT22;2383;48.632;10.156;2023-06-22T10:56:31;24.60;97.10
4739;DHT22;2383;48.632;10.156;2023-06-22T11:00:35;25.20;95.90
4739;DHT22;2383;48.632;10.156;2023-06-22T11:04:37;25.30;95.40
4739;DHT22;2383;48.632;10.156;2023-06-22T11:08:41;25.60;94.60
4739;DHT22;2383;48.632;10.156;2023-06-22T11:13:04;25.50;93.80
4739;DHT22;2383;48.632;10.156;2023-06-22T11:17:07;25.60;95.90
4739;DHT22;2383;48.632;10.156;2023-06-22T11:21:09;26.00;95.20
4739;DHT22;2383;48.632;10.156;2023-06-22T11:25:11;26.20;94.10
4739;DHT22;2383;48.632;10.156;2023-06-22T11:29:14;26.30;93.60
4739;DHT22;2383;48.632;10.156;2023-06-22T11:33:33;26.50;93.90
4739;DHT22;2383;48.632;10.156;2023-06-22T11:37:34;26.50;92.60
4739;DHT22;2383;48.632;10.156;2023-06-22T11:41:37;26.80;92.70
4739;DHT22;2383;48.632;10.156;2023-06-22T11:45:41;26.90;93.50
4739;DHT22;2383;48.632;10.156;2023-06-22T11:49:43;26.60;93.70
4739;DHT22;2383;48.632;10.156;2023-06-22T11:53:45;26.40;94.60
4739;DHT22;2383;48.632;10.156;2023-06-22T11:57:55;27.00;92.90
4739;DHT22;2383;48.632;10.156;2023-06-22T12:01:58;27.30;92.90
4739;DHT22;2383;48.632;10.156;2023-06-22T12:06:00;26.60;93.90
4739;DHT22;2383;48.632;10.156;2023-06-22T12:10:02;27.10;93.40
4739;DHT22;2383;48.632;10.156;2023-06-22T12:14:05;27.60;92.20
4739;DHT22;2383;48.632;10.156;2023-06-22T12:18:07;27.40;92.50
4739;DHT22;2383;48.632;10.156;2023-06-22T12:22:10;27.60;92.20
4739;DHT22;2383;48.632;10.156;2023-06-22T12:26:12;27.60;91.80
4739;DHT22;2383;48.632;10.156;2023-06-22T12:30:15;27.70;91.80
4739;DHT22;2383;48.632;10.156;2023-06-22T12:34:18;27.80;91.20
4739;DHT22;2383;48.632;10.156;2023-06-22T12:38:20;27.70;91.60
4739;DHT22;2383;48.632;10.156;2023-06-22T12:42:22;27.70;90.60
4739;DHT22;2383;48.632;10.156;2023-06-22T12:46:24;27.90;91.50
4739;DHT22;2383;48.632;10.156;2023-06-22T12:50:26;28.00;90.30
4739;DHT22;2383;48.632;10.156;2023-06-22T12:54:29;28.10;91.10
4739;DHT22;2383;48.632;10.156;2023-06-22T12:58:35;27.90;90.90
4739;DHT22;2383;48.632;10.156;2023-06-22T13:02:38;28.10;90.80
4739;DHT22;2383;48.632;10.156;2023-06-22T13:06:43;28.10;90.50
4739;DHT22;2383;48.632;10.156;2023-06-22T13:10:50;27.70;90.10
4739;DHT22;2383;48.632;10.156;2023-06-22T13:14:52;27.90;90.10
4739;DHT22;2383;48.632;10.156;2023-06-22T13:18:54;28.10;89.80
4739;DHT22;2383;48.632;10.156;2023-06-22T13:22:56;28.20;89.50
4739;DHT22;2383;48.632;10.156;2023-06-22T13:26:58;28.30;91.10
4739;DHT22;2383;48.632;10.156;2023-06-22T13:31:01;28.30;90.00
4739;DHT22;2383;48.632;10.156;2023-06-22T13:35:03;28.00;89.90
4739;DHT22;2383;48.632;10.156;2023-06-22T13:39:05;27.90;89.90
4739;DHT22;2383;48.632;10.156;2023-06-22T13:43:07;27.80;90.60
4739;DHT22;2383;48.632;10.156;2023-06-22T13:47:09;28.20;90.30
4739;DHT22;2383;48.632;10.156;2023-06-22T13:51:11;27.90;90.80
4739;DHT22;2383;48.632;10.156;2023-06-22T13:55:13;28.00;90.40
4739;DHT22;2383;48.632;10.156;2023-06-22T13:59:16;28.00;90.60
4739;DHT22;2383;48.632;10.156;2023-06-22T14:03:18;27.70;90.40
4739;DHT22;2383;48.632;10.156;2023-06-22T14:07:20;27.70;90.60
4739;DHT22;2383;48.632;10.156;2023-06-22T14:11:23;27.70;90.60
4739;DHT22;2383;48.632;10.156;2023-06-22T14:15:24;27.90;90.60
4739;DHT22;2383;48.632;10.156;2023-06-22T14:19:27;27.90;91.20
4739;DHT22;2383;48.632;10.156;2023-06-22T14:23:29;27.30;91.40
4739;DHT22;2383;48.632;10.156;2023-06-22T14:27:31;27.60;91.20
4739;DHT22;2383;48.632;10.156;2023-06-22T14:31:33;27.60;90.50
4739;DHT22;2383;48.632;10.156;2023-06-22T14:35:36;28.10;90.20
4739;DHT22;2383;48.632;10.156;2023-06-22T14:39:37;28.40;89.50
4739;DHT22;2383;48.632;10.156;2023-06-22T14:43:44;27.90;90.00
4739;DHT22;2383;48.632;10.156;2023-06-22T14:47:47;27.70;90.00
4739;DHT22;2383;48.632;10.156;2023-06-22T14:51:49;28.30;89.10
4739;DHT22;2383;48.632;10.156;2023-06-22T14:55:51;28.90;88.20
4739;DHT22;2383;48.632;10.156;2023-06-22T14:59:53;29.20;88.40
4739;DHT22;2383;48.632;10.156;2023-06-22T15:03:55;28.80;89.60
4739;DHT22;2383;48.632;10.156;2023-06-22T15:07:58;28.90;90.30
4739;DHT22;2383;48.632;10.156;2023-06-22T15:12:00;28.70;89.10
4739;DHT22;2383;48.632;10.156;2023-06-22T15:16:04;28.90;89.30
4739;DHT22;2383;48.632;10.156;2023-06-22T15:20:06;29.00;89.90
4739;DHT22;2383;48.632;10.156;2023-06-22T15:24:11;29.10;90.10
4739;DHT22;2383;48.632;10.156;2023-06-22T15:28:14;29.00;86.50
4739;DHT22;2383;48.632;10.156;2023-06-22T15:32:16;28.20;89.00
4739;DHT22;2383;48.632;10.156;2023-06-22T15:36:18;27.80;90.50
4739;DHT22;2383;48.632;10.156;2023-06-22T15:40:20;28.20;88.60
4739;DHT22;2383;48.632;10.156;2023-06-22T15:44:22;28.70;89.30
4739;DHT22;2383;48.632;10.156;2023-06-22T15:48:24;28.90;88.40
4739;DHT22;2383;48.632;10.156;2023-06-22T15:52:26;29.00;89.20
4739;DHT22;2383;48.632;10.156;2023-06-22T15:56:29;29.00;90.20
4739;DHT22;2383;48.632;10.156;2023-06-22T16:00:32;28.70;90.80
4739;DHT22;2383;48.632;10.156;2023-06-22T16:04:35;28.60;90.80
4739;DHT22;2383;48.632;10.156;2023-06-22T16:08:37;28.40;91.40
4739;DHT22;2383;48.632;10.156;2023-06-22T16:12:42;28.20;92.40
4739;DHT22;2383;48.632;10.156;2023-06-22T16:16:44;28.20;92.20
4739;DHT22;2383;48.632;10.156;2023-06-22T16:20:46;28.10;92.50
4739;DHT22;2383;48.632;10.156;2023-06-22T16:24:48;28.00;92.90
4739;DHT22;2383;48.632;10.156;2023-06-22T16:28:53;27.90;93.10
4739;DHT22;2383;48.632;10.156;2023-06-22T16:32:57;27.60;93.60
4739;DHT22;2383;48.632;10.156;2023-06-22T16:37:04;27.30;93.60
4739;DHT22;2383;48.632;10.156;2023-06-22T16:41:06;27.60;92.90
4739;DHT22;2383;48.632;10.156;2023-06-22T16:45:09;27.50;93.10
4739;DHT22;2383;48.632;10.156;2023-06-22T16:49:11;27.30;93.50
4739;DHT22;2383;48.632;10.156;2023-06-22T16:53:13;27.20;93.10
4739;DHT22;2383;48.632;10.156;2023-06-22T16:57:16;27.00;93.50
4739;DHT22;2383;48.632;10.156;2023-06-22T17:01:22;26.80;93.40
4739;DHT22;2383;48.632;10.156;2023-06-22T17:05:26;26.50;93.80
4739;DHT22;2383;48.632;10.156;2023-06-22T17:09:29;26.00;91.10
4739;DHT22;2383;48.632;10.156;2023-06-22T17:13:35;25.40;90.70
4739;DHT22;2383;48.632;10.156;2023-06-22T17:17:40;25.00;90.80
4739;DHT22;2383;48.632;10.156;2023-06-22T17:21:45;24.70;90.20
4739;DHT22;2383;48.632;10.156;2023-06-22T17:25:50;24.30;90.80
4739;DHT22;2383;48.632;10.156;2023-06-22T17:30:08;24.90;90.40
4739;DHT22;2383;48.632;10.156;2023-06-22T17:34:17;24.80;88.40
4739;DHT22;2383;48.632;10.156;2023-06-22T17:38:22;23.50;90.00
4739;DHT22;2383;48.632;10.156;2023-06-22T17:42:24;23.80;89.60
4739;DHT22;2383;48.632;10.156;2023-06-22T17:46:36;24.10;89.10
4739;DHT22;2383;48.632;10.156;2023-06-22T17:50:40;23.60;89.90
4739;DHT22;2383;48.632;10.156;2023-06-22T17:54:43;23.20;90.80
4739;DHT22;2383;48.632;10.156;2023-06-22T17:58:53;22.90;91.10
4739;DHT22;2383;48.632;10.156;2023-06-22T18:02:55;22.70;91.80
4739;DHT22;2383;48.632;10.156;2023-06-22T18:06:58;23.00;94.00
4739;DHT22;2383;48.632;10.156;2023-06-22T18:11:05;20.70;99.90
4739;DHT22;2383;48.632;10.156;2023-06-22T18:15:08;20.40;99.90
4739;DHT22;2383;48.632;10.156;2023-06-22T18:19:10;19.60;99.90
4739;DHT22;2383;48.632;10.156;2023-06-22T18:23:14;20.10;99.90
4739;DHT22;2383;48.632;10.156;2023-06-22T18:27:18;20.30;99.90
4739;DHT22;2383;48.632;10.156;2023-06-22T18:31:22;19.80;99.90
4739;DHT22;2383;48.632;10.156;2023-06-22T18:35:24;17.90;99.90
4739;DHT22;2383;48.632;10.156;2023-06-22T18:39:27;17.30;99.90
4739;DHT22;2383;48.632;10.156;2023-06-22T18:43:37;17.60;99.90
4739;DHT22;2383;48.632;10.156;2023-06-22T18:47:40;18.20;99.90
4739;DHT22;2383;48.632;10.156;2023-06-22T18:52:03;18.40;99.90
4739;DHT22;2383;48.632;10.156;2023-06-22T18:56:14;17.80;99.90
4739;DHT22;2383;48.632;10.156;2023-06-22T19:00:16;18.40;99.90
4739;DHT22;2383;48.632;10.156;2023-06-22T19:04:19;18.40;99.90
4739;DHT22;2383;48.632;10.156;2023-06-22T19:08:22;18.50;99.90
4739;DHT22;2383;48.632;10.156;2023-06-22T19:12:25;18.30;99.90
4739;DHT22;2383;48.632;10.156;2023-06-22T19:16:31;18.30;99.90
4739;DHT22;2383;48.632;10.156;2023-06-22T19:20:33;18.70;99.90
4739;DHT22;2383;48.632;10.156;2023-06-22T19:24:49;18.90;99.90
4739;DHT22;2383;48.632;10.156;2023-06-22T19:28:55;19.00;99.90
4739;DHT22;2383;48.632;10.156;2023-06-22T19:33:01;18.90;99.90
4739;DHT22;2383;48.632;10.156;2023-06-22T19:37:16;18.70;99.90
4739;DHT22;2383;48.632;10.156;2023-06-22T19:41:20;18.90;99.90
4739;DHT22;2383;48.632;10.156;2023-06-22T19:45:23;19.30;99.90
4739;DHT22;2383;48.632;10.156;2023-06-22T19:49:25;19.60;99.90
4739;DHT22;2383;48.632;10.156;2023-06-22T19:53:28;19.80;99.90
4739;DHT22;2383;48.632;10.156;2023-06-22T19:57:36;19.80;99.90
4739;DHT22;2383;48.632;10.156;2023-06-22T20:01:39;19.40;99.90
4739;DHT22;2383;48.632;10.156;2023-06-22T20:05:43;19.40;99.90
4739;DHT22;2383;48.632;10.156;2023-06-22T20:09:45;19.60;99.90
4739;DHT22;2383;48.632;10.156;2023-06-22T20:14:06;19.60;99.90
4739;DHT22;2383;48.632;10.156;2023-06-22T20:18:09;19.60;99.90
4739;DHT22;2383;48.632;10.156;2023-06-22T20:22:11;19.70;99.90
4739;DHT22;2383;48.632;10.156;2023-06-22T20:26:14;19.80;99.90
4739;DHT22;2383;48.632;10.156;2023-06-22T20:30:20;19.90;99.90
4739;DHT22;2383;48.632;10.156;2023-06-22T20:34:23;20.00;99.90
4739;DHT22;2383;48.632;10.156;2023-06-22T20:38:26;20.00;99.90
4739;DHT22;2383;48.632;10.156;2023-06-22T20:42:29;20.00;99.90
4739;DHT22;2383;48.632;10.156;2023-06-22T20:46:31;20.00;99.90
4739;DHT22;2383;48.632;10.156;2023-06-22T20:50:33;20.00;99.90
4739;DHT22;2383;48.632;10.156;2023-06-22T20:54:35;20.00;99.90
4739;DHT22;2383;48.632;10.156;2023-06-22T20:58:38;20.00;99.90
4739;DHT22;2383;48.632;10.156;2023-06-22T21:02:40;20.00;99.90
4739;DHT22;2383;48.632;10.156;2023-06-22T21:06:42;20.10;99.90
4739;DHT22;2383;48.632;10.156;2023-06-22T21:10:44;20.00;99.90
4739;DHT22;2383;48.632;10.156;2023-06-22T21:14:46;19.90;99.90
4739;DHT22;2383;48.632;10.156;2023-06-22T21:18:48;20.00;99.90
4739;DHT22;2383;48.632;10.156;2023-06-22T21:22:51;20.10;99.90
4739;DHT22;2383;48.632;10.156;2023-06-22T21:26:53;20.20;99.90
4739;DHT22;2383;48.632;10.156;2023-06-22T21:30:55;20.10;99.90
4739;DHT22;2383;48.632;10.156;2023-06-22T21:34:57;20.00;99.90
4739;DHT22;2383;48.632;10.156;2023-06-22T21:39:01;20.00;99.90
4739;DHT22;2383;48.632;10.156;2023-06-22T21:43:03;20.00;99.90
4739;DHT22;2383;48.632;10.156;2023-06-22T21:47:06;19.90;99.90
4739;DHT22;2383;48.632;10.156;2023-06-22T21:51:08;19.60;99.90
4739;DHT22;2383;48.632;10.156;2023-06-22T21:55:10;19.50;99.90
4739;DHT22;2383;48.632;10.156;2023-06-22T21:59:12;19.60;99.90
4739;DHT22;2383;48.632;10.156;2023-06-22T22:03:14;19.40;99.90
4739;DHT22;2383;48.632;10.156;2023-06-22T22:07:17;19.00;99.90
4739;DHT22;2383;48.632;10.156;2023-06-22T22:11:21;18.20;99.90
4739;DHT22;2383;48.632;10.156;2023-06-22T22:15:23;18.60;99.90
4739;DHT22;2383;48.632;10.156;2023-06-22T22:19:25;18.70;99.90
4739;DHT22;2383;48.632;10.156;2023-06-22T22:23:27;18.80;99.90
4739;DHT22;2383;48.632;10.156;2023-06-22T22:27:30;18.80;99.90
4739;DHT22;2383;48.632;10.156;2023-06-22T22:31:32;18.50;99.90
4739;DHT22;2383;48.632;10.156;2023-06-22T22:35:39;18.20;99.90
4739;DHT22;2383;48.632;10.156;2023-06-22T22:39:41;18.60;99.90
4739;DHT22;2383;48.632;10.156;2023-06-22T22:43:43;18.60;99.90
4739;DHT22;2383;48.632;10.156;2023-06-22T22:47:45;18.80;99.90
4739;DHT22;2383;48.632;10.156;2023-06-22T22:51:47;18.90;99.90
4739;DHT22;2383;48.632;10.156;2023-06-22T22:55:50;18.80;99.90
4739;DHT22;2383;48.632;10.156;2023-06-22T22:59:52;19.00;99.90
4739;DHT22;2383;48.632;10.156;2023-06-22T23:03:54;19.10;99.90
4739;DHT22;2383;48.632;10.156;2023-06-22T23:07:57;19.20;99.90
4739;DHT22;2383;48.632;10.156;2023-06-22T23:11:59;19.10;99.90
4739;DHT22;2383;48.632;10.156;2023-06-22T23:16:01;19.00;99.90
4739;DHT22;2383;48.632;10.156;2023-06-22T23:20:06;18.90;99.90
4739;DHT22;2383;48.632;10.156;2023-06-22T23:24:11;18.90;99.90
4739;DHT22;2383;48.632;10.156;2023-06-22T23:28:13;18.70;99.90
4739;DHT22;2383;48.632;10.156;2023-06-22T23:32:30;18.60;99.90
4739;DHT22;2383;48.632;10.156;2023-06-22T23:36:32;18.40;99.90
4739;DHT22;2383;48.632;10.156;2023-06-22T23:40:34;18.60;99.90
4739;DHT22;2383;48.632;10.156;2023-06-22T23:44:38;18.60;99.90
4739;DHT22;2383;48.632;10.156;2023-06-22T23:48:40;18.70;99.90
4739;DHT22;2383;48.632;10.156;2023-06-22T23:52:46;18.70;99.90
4739;DHT22;2383;48.632;10.156;2023-06-22T23:56:52;18.40;99.90
